createdAt,value
2019-04-29T00:00:12.415Z,19.23
2019-04-29T00:02:40.787Z,18.60
2019-04-29T00:05:09.602Z,18.20
2019-04-29T00:07:38.141Z,17.33
2019-04-29T00:10:08.219Z,16.20
2019-04-29T00:12:36.608Z,18.00
2019-04-29T00:15:08.869Z,17.10
2019-04-29T00:17:57.274Z,19.03
2019-04-29T00:20:33.135Z,18.43
2019-04-29T00:23:01.525Z,18.93
2019-04-29T00:25:29.911Z,18.37
2019-04-29T00:27:58.302Z,18.30
2019-04-29T00:30:26.687Z,19.60
2019-04-29T00:32:55.067Z,17.63
2019-04-29T00:35:23.460Z,18.03
2019-04-29T00:37:53.480Z,16.07
2019-04-29T00:40:39.935Z,16.00
2019-04-29T00:43:15.956Z,14.87
2019-04-29T00:45:44.413Z,15.33
2019-04-29T00:48:12.808Z,15.67
2019-04-29T00:50:41.180Z,15.77
2019-04-29T00:53:09.555Z,17.63
2019-04-29T00:55:37.948Z,20.20
2019-04-29T00:58:06.329Z,21.97
2019-04-29T01:00:36.917Z,23.90
2019-04-29T01:03:05.543Z,23.47
2019-04-29T01:05:33.940Z,23.03
2019-04-29T01:08:02.331Z,23.23
2019-04-29T01:10:30.715Z,21.50
2019-04-29T01:12:59.107Z,18.13
2019-04-29T01:15:27.479Z,17.77
2019-04-29T01:17:56.028Z,17.47
2019-04-29T01:20:24.418Z,17.53
2019-04-29T01:22:52.807Z,19.03
2019-04-29T01:25:21.196Z,18.07
2019-04-29T01:27:54.040Z,20.57
2019-04-29T01:31:03.021Z,19.93
2019-04-29T01:33:31.408Z,18.17
2019-04-29T01:36:03.896Z,29.57
2019-04-29T01:38:32.279Z,17.17
2019-04-29T01:41:04.724Z,16.97
2019-04-29T01:43:51.179Z,18.53
2019-04-29T01:46:19.555Z,17.90
2019-04-29T01:48:47.937Z,17.40
2019-04-29T01:51:35.652Z,18.40
2019-04-29T01:54:04.099Z,15.47
2019-04-29T01:56:32.579Z,17.27
2019-04-29T01:59:00.959Z,16.37
2019-04-29T02:01:29.340Z,15.10
2019-04-29T02:03:57.743Z,15.53
2019-04-29T02:06:26.312Z,16.00
2019-04-29T02:08:56.029Z,14.93
2019-04-29T02:11:24.411Z,15.67
2019-04-29T02:13:52.876Z,15.93
2019-04-29T02:16:21.256Z,15.20
2019-04-29T02:18:49.649Z,15.53
2019-04-29T02:21:18.027Z,15.27
2019-04-29T02:23:48.068Z,14.73
2019-04-29T02:26:16.452Z,13.73
2019-04-29T02:28:44.837Z,12.37
2019-04-29T02:31:31.145Z,11.20
2019-04-29T02:33:59.524Z,10.93
2019-04-29T02:36:30.046Z,10.67
2019-04-29T02:39:15.905Z,10.97
2019-04-29T02:42:04.236Z,10.67
2019-04-29T02:44:32.627Z,9.47
2019-04-29T02:47:01.377Z,10.37
2019-04-29T02:49:29.757Z,10.57
2019-04-29T02:51:58.147Z,9.77
2019-04-29T02:54:28.299Z,9.67
2019-04-29T02:57:16.544Z,9.90
2019-04-29T03:00:05.120Z,10.03
2019-04-29T03:02:37.887Z,9.67
2019-04-29T03:05:13.873Z,11.03
2019-04-29T03:07:42.274Z,11.73
2019-04-29T03:10:10.777Z,12.70
2019-04-29T03:12:39.922Z,13.73
2019-04-29T03:15:09.694Z,13.93
2019-04-29T03:17:38.152Z,12.80
2019-04-29T03:20:09.109Z,12.37
2019-04-29T03:22:39.432Z,12.87
2019-04-29T03:25:07.888Z,14.27
2019-04-29T03:27:36.269Z,15.20
2019-04-29T03:30:06.171Z,13.97
2019-04-29T03:32:34.553Z,12.93
2019-04-29T03:35:03.008Z,11.30
2019-04-29T03:37:31.391Z,9.30
2019-04-29T03:39:59.761Z,8.80
2019-04-29T03:42:28.156Z,9.23
2019-04-29T03:44:56.546Z,9.33
2019-04-29T03:47:24.922Z,10.67
2019-04-29T03:49:53.314Z,9.30
2019-04-29T03:52:21.771Z,9.50
2019-04-29T03:54:50.153Z,10.27
2019-04-29T03:57:19.405Z,13.13
2019-04-29T03:59:47.789Z,16.97
2019-04-29T04:02:29.805Z,17.70
2019-04-29T04:05:02.797Z,15.57
2019-04-29T04:07:32.822Z,24.00
2019-04-29T04:10:01.188Z,27.53
2019-04-29T04:12:29.604Z,30.77
2019-04-29T04:14:57.977Z,19.03
2019-04-29T04:20:14.619Z,18.37
2019-04-29T04:22:47.243Z,22.47
2019-04-29T04:25:16.793Z,22.23
2019-04-29T04:27:45.824Z,22.67
2019-04-29T04:30:15.041Z,21.57
2019-04-29T04:32:43.453Z,20.47
2019-04-29T04:35:13.136Z,22.80
2019-04-29T04:37:41.518Z,23.20
2019-04-29T04:40:12.073Z,23.50
2019-04-29T04:42:40.461Z,33.00
2019-04-29T04:45:09.174Z,34.57
2019-04-29T04:47:37.569Z,34.30
2019-04-29T04:50:06.495Z,28.70
2019-04-29T04:52:34.883Z,27.13
2019-04-29T04:55:03.828Z,35.63
2019-04-29T04:57:32.203Z,37.50
2019-04-29T05:00:00.665Z,40.20
2019-04-29T05:02:29.048Z,40.57
2019-04-29T05:04:57.449Z,50.13
2019-04-29T05:07:25.921Z,46.30
2019-04-29T05:09:54.307Z,45.83
2019-04-29T05:12:22.698Z,53.27
2019-04-29T05:14:51.077Z,52.90
2019-04-29T05:17:19.464Z,56.20
2019-04-29T05:19:47.843Z,55.00
2019-04-29T05:22:16.240Z,54.10
2019-04-29T05:24:44.623Z,54.43
2019-04-29T05:27:13.000Z,47.00
2019-04-29T05:29:41.413Z,43.87
2019-04-29T05:32:09.794Z,47.73
2019-04-29T05:34:41.835Z,46.57
2019-04-29T05:37:20.071Z,43.27
2019-04-29T05:39:48.467Z,45.43
2019-04-29T05:42:17.339Z,46.03
2019-04-29T05:45:05.928Z,43.53
2019-04-29T05:47:38.636Z,38.40
2019-04-29T05:50:16.718Z,38.03
2019-04-29T05:52:55.050Z,36.03
2019-04-29T05:55:23.441Z,31.90
2019-04-29T05:57:55.896Z,35.40
2019-04-29T06:00:23.358Z,32.03
2019-04-29T06:02:52.127Z,30.33
2019-04-29T06:05:20.504Z,27.40
2019-04-29T06:07:51.488Z,27.67
2019-04-29T06:10:22.985Z,30.07
2019-04-29T06:12:49.101Z,26.37
2019-04-29T06:15:17.471Z,28.07
2019-04-29T06:17:46.344Z,28.83
2019-04-29T06:20:17.897Z,26.77
2019-04-29T06:22:44.957Z,27.53
2019-04-29T06:25:13.481Z,28.00
2019-04-29T06:27:41.856Z,28.33
2019-04-29T06:30:10.387Z,29.07
2019-04-29T06:32:38.779Z,29.70
2019-04-29T06:35:10.649Z,27.23
2019-04-29T06:37:37.355Z,27.97
2019-04-29T06:40:07.341Z,31.47
2019-04-29T06:42:35.757Z,33.13
2019-04-29T06:45:06.060Z,32.80
2019-04-29T06:47:34.440Z,34.77
2019-04-29T06:50:04.010Z,39.57
2019-04-29T06:52:32.400Z,30.27
2019-04-29T06:55:00.787Z,25.10
2019-04-29T06:57:29.176Z,18.63
2019-04-29T06:59:57.577Z,17.83
2019-04-29T07:02:25.954Z,15.63
2019-04-29T07:04:54.357Z,13.00
2019-04-29T07:07:22.759Z,12.47
2019-04-29T07:09:51.212Z,11.60
2019-04-29T07:12:19.599Z,11.37
2019-04-29T07:14:47.980Z,12.60
2019-04-29T07:17:16.372Z,10.83
2019-04-29T07:19:44.760Z,10.37
2019-04-29T07:22:13.145Z,10.40
2019-04-29T07:24:41.536Z,10.10
2019-04-29T07:27:09.940Z,10.53
2019-04-29T07:29:38.338Z,9.60
2019-04-29T07:32:09.268Z,8.70
2019-04-29T07:34:39.532Z,8.90
2019-04-29T07:37:07.001Z,9.03
2019-04-29T07:39:35.380Z,8.77
2019-04-29T07:42:03.823Z,9.50
2019-04-29T07:44:43.741Z,9.83
2019-04-29T07:47:04.103Z,9.90
2019-04-29T07:49:32.500Z,9.53
2019-04-29T07:52:00.879Z,8.67
2019-04-29T07:54:29.256Z,9.33
2019-04-29T07:56:57.885Z,8.93
2019-04-29T07:59:26.264Z,9.27
2019-04-29T08:01:55.576Z,8.87
2019-04-29T08:04:24.806Z,8.93
2019-04-29T08:06:54.056Z,8.73
2019-04-29T08:09:22.513Z,8.87
2019-04-29T08:11:52.625Z,8.60
2019-04-29T08:14:22.747Z,8.80
2019-04-29T08:16:51.167Z,8.60
2019-04-29T08:19:19.559Z,8.80
2019-04-29T08:21:49.817Z,8.17
2019-04-29T08:24:18.073Z,7.47
2019-04-29T08:26:47.647Z,8.23
2019-04-29T08:29:16.428Z,8.10
2019-04-29T08:31:44.860Z,8.93
2019-04-29T08:34:13.216Z,8.40
2019-04-29T08:36:41.601Z,9.00
2019-04-29T08:39:10.061Z,9.63
2019-04-29T08:41:38.446Z,9.37
2019-04-29T08:44:16.307Z,9.23
2019-04-29T08:46:44.368Z,9.13
2019-04-29T08:49:14.812Z,9.47
2019-04-29T08:51:42.844Z,9.63
2019-04-29T08:54:11.227Z,9.10
2019-04-29T08:56:42.566Z,9.07
2019-04-29T08:59:09.968Z,9.83
2019-04-29T09:01:38.360Z,10.50
2019-04-29T09:04:06.744Z,9.07
2019-04-29T09:06:35.122Z,9.23
2019-04-29T09:09:04.960Z,9.90
2019-04-29T09:11:34.759Z,10.17
2019-04-29T09:14:03.444Z,9.20
2019-04-29T09:16:31.827Z,9.20
2019-04-29T09:19:00.231Z,6.33
2019-04-29T09:21:28.617Z,6.90
2019-04-29T09:23:57.002Z,9.47
2019-04-29T09:26:27.032Z,7.17
2019-04-29T09:28:55.408Z,6.57
2019-04-29T09:31:23.783Z,6.23
2019-04-29T09:33:59.721Z,7.57
2019-04-29T09:36:22.271Z,6.83
2019-04-29T09:38:50.659Z,8.20
2019-04-29T09:41:20.683Z,7.83
2019-04-29T09:43:53.180Z,7.13
2019-04-29T09:46:29.939Z,4.33
2019-04-29T09:48:56.041Z,5.63
2019-04-29T09:51:27.745Z,5.87
2019-04-29T09:53:54.504Z,6.30
2019-04-29T09:56:22.887Z,6.17
2019-04-29T09:58:52.903Z,6.37
2019-04-29T10:01:22.939Z,5.77
2019-04-29T10:03:58.935Z,6.67
2019-04-29T10:06:29.049Z,7.53
2019-04-29T10:08:57.516Z,7.47
2019-04-29T10:11:26.096Z,6.77
2019-04-29T10:13:54.554Z,7.30
2019-04-29T10:16:37.180Z,7.10
2019-04-29T10:19:07.327Z,6.97
2019-04-29T10:21:35.734Z,8.07
2019-04-29T10:24:04.346Z,8.93
2019-04-29T10:26:32.814Z,8.97
2019-04-29T10:29:02.847Z,9.77
2019-04-29T10:31:31.295Z,9.53
2019-04-29T10:33:59.688Z,9.43
2019-04-29T10:36:28.072Z,8.57
2019-04-29T10:38:58.099Z,8.20
2019-04-29T10:41:28.269Z,8.60
2019-04-29T10:44:00.976Z,7.83
2019-04-29T10:46:33.717Z,8.40
2019-04-29T10:49:10.007Z,8.63
2019-04-29T10:51:38.567Z,7.67
2019-04-29T10:54:07.685Z,6.93
2019-04-29T10:56:39.417Z,7.17
2019-04-29T10:59:09.234Z,7.60
2019-04-29T11:02:13.364Z,7.80
2019-04-29T11:04:49.848Z,7.90
2019-04-29T11:07:26.637Z,8.17
2019-04-29T11:10:24.457Z,8.00
2019-04-29T11:12:43.950Z,8.70
2019-04-29T11:15:14.086Z,7.93
2019-04-29T11:17:44.407Z,7.60
2019-04-29T11:20:15.967Z,7.90
2019-04-29T11:23:03.768Z,8.27
2019-04-29T11:25:33.807Z,8.10
2019-04-29T11:28:02.179Z,8.83
2019-04-29T11:30:34.845Z,10.35
2019-04-29T11:33:04.829Z,9.13
2019-04-29T11:35:41.584Z,8.80
2019-04-29T11:38:14.055Z,9.37
2019-04-29T11:40:44.032Z,9.50
2019-04-29T11:43:15.445Z,9.33
2019-04-29T11:45:43.355Z,10.80
2019-04-29T11:48:11.752Z,10.40
2019-04-29T11:50:45.218Z,10.77
2019-04-29T11:53:13.919Z,12.33
2019-04-29T11:55:45.996Z,11.27
2019-04-29T11:58:14.089Z,11.63
2019-04-29T12:00:47.153Z,10.63
2019-04-29T12:03:19.015Z,10.40
2019-04-29T12:05:49.007Z,9.83
2019-04-29T12:08:18.430Z,10.97
2019-04-29T12:11:05.631Z,10.67
2019-04-29T12:13:25.549Z,11.30
2019-04-29T12:15:56.475Z,11.00
2019-04-29T12:18:26.494Z,10.47
2019-04-29T12:21:08.409Z,9.73
2019-04-29T12:23:36.841Z,10.17
2019-04-29T12:26:05.857Z,8.80
2019-04-29T12:28:37.815Z,8.43
2019-04-29T12:31:10.294Z,9.50
2019-04-29T12:33:40.652Z,9.47
2019-04-29T12:36:10.675Z,8.93
2019-04-29T12:38:48.856Z,7.47
2019-04-29T12:41:29.567Z,7.77
2019-04-29T12:43:59.327Z,7.62
2019-04-29T12:46:27.792Z,8.75
2019-04-29T12:48:56.184Z,7.22
2019-04-29T12:51:24.575Z,8.20
2019-04-29T12:53:52.952Z,8.38
2019-04-29T12:56:25.992Z,7.47
2019-04-29T12:58:55.132Z,8.93
2019-04-29T13:01:51.259Z,7.08
2019-04-29T13:04:30.999Z,8.60
2019-04-29T13:07:10.216Z,8.90
2019-04-29T13:09:40.252Z,7.20
2019-04-29T13:12:19.187Z,8.15
2019-04-29T13:14:40.905Z,8.20
2019-04-29T13:17:14.881Z,8.85
2019-04-29T13:20:01.713Z,8.18
2019-04-29T13:22:21.993Z,8.45
2019-04-29T13:24:50.388Z,8.98
2019-04-29T13:27:20.741Z,9.13
2019-04-29T13:29:48.897Z,9.47
2019-04-29T13:32:17.321Z,9.40
2019-04-29T13:34:47.203Z,8.63
2019-04-29T13:37:19.022Z,7.83
2019-04-29T13:39:45.788Z,8.30
2019-04-29T13:42:15.833Z,8.45
2019-04-29T13:45:04.702Z,8.05
2019-04-29T13:47:28.977Z,8.53
2019-04-29T13:49:54.058Z,8.68
2019-04-29T13:52:22.463Z,7.70
2019-04-29T13:54:50.861Z,7.08
2019-04-29T13:57:19.220Z,6.85
2019-04-29T13:59:51.996Z,8.03
2019-04-29T14:02:29.160Z,10.58
2019-04-29T14:04:56.058Z,9.53
2019-04-29T14:07:23.881Z,8.27
2019-04-29T14:09:52.488Z,8.97
2019-04-29T14:14:53.897Z,9.73
2019-04-29T14:17:26.601Z,9.23
2019-04-29T14:19:51.230Z,9.47
2019-04-29T14:22:22.425Z,10.90
2019-04-29T14:24:49.782Z,10.27
2019-04-29T14:27:25.233Z,10.07
2019-04-29T14:29:51.324Z,11.33
2019-04-29T14:32:18.529Z,10.67
2019-04-29T14:35:00.532Z,10.63
2019-04-29T14:37:28.923Z,10.57
2019-04-29T14:39:57.310Z,11.07
2019-04-29T14:42:31.902Z,11.57
2019-04-29T14:45:05.053Z,12.63
2019-04-29T14:47:35.084Z,11.10
2019-04-29T14:50:05.885Z,9.40
2019-04-29T14:52:34.513Z,9.00
2019-04-29T14:55:02.898Z,8.53
2019-04-29T14:57:31.273Z,7.90
2019-04-29T14:59:59.930Z,7.50
2019-04-29T15:02:28.626Z,8.63
2019-04-29T15:04:57.126Z,8.73
2019-04-29T15:07:27.241Z,8.77
2019-04-29T15:09:57.323Z,8.93
2019-04-29T15:12:28.570Z,8.87
2019-04-29T15:15:00.343Z,8.87
2019-04-29T15:17:36.137Z,9.53
2019-04-29T15:20:08.096Z,8.77
2019-04-29T15:22:40.342Z,9.27
2019-04-29T15:25:09.267Z,8.63
2019-04-29T15:27:37.660Z,9.00
2019-04-29T15:30:09.395Z,8.50
2019-04-29T15:32:37.791Z,8.00
2019-04-29T15:35:06.831Z,8.93
2019-04-29T15:37:35.245Z,8.70
2019-04-29T15:40:04.826Z,9.07
2019-04-29T15:42:33.425Z,9.37
2019-04-29T15:45:01.858Z,8.97
2019-04-29T15:47:31.493Z,8.50
2019-04-29T15:50:00.802Z,7.70
2019-04-29T15:52:30.308Z,8.17
2019-04-29T15:54:58.702Z,7.63
2019-04-29T15:57:27.080Z,7.13
2019-04-29T16:00:00.015Z,7.83
2019-04-29T16:02:25.703Z,8.20
2019-04-29T16:04:58.308Z,8.17
2019-04-29T16:07:28.344Z,7.77
2019-04-29T16:10:20.660Z,7.63
2019-04-29T16:12:50.939Z,8.17
2019-04-29T16:15:23.100Z,8.10
2019-04-29T16:17:51.535Z,8.83
2019-04-29T16:20:19.912Z,8.00
2019-04-29T16:22:48.295Z,7.93
2019-04-29T16:25:16.697Z,7.47
2019-04-29T16:27:48.891Z,8.00
2019-04-29T16:30:18.937Z,7.60
2019-04-29T16:32:46.440Z,7.60
2019-04-29T16:35:17.871Z,7.37
2019-04-29T16:37:45.001Z,7.37
2019-04-29T16:40:13.633Z,6.40
2019-04-29T16:42:52.871Z,6.43
2019-04-29T16:45:22.945Z,6.23
2019-04-29T16:47:51.344Z,7.40
2019-04-29T16:50:19.821Z,7.13
2019-04-29T16:52:48.198Z,7.00
2019-04-29T16:55:16.656Z,6.93
2019-04-29T16:57:45.067Z,6.93
2019-04-29T17:00:15.984Z,6.97
2019-04-29T17:02:44.400Z,6.83
2019-04-29T17:05:13.224Z,6.53
2019-04-29T17:07:41.604Z,6.70
2019-04-29T17:10:17.604Z,6.77
2019-04-29T17:12:47.628Z,6.57
2019-04-29T17:15:24.772Z,6.57
2019-04-29T17:17:46.208Z,6.43
2019-04-29T17:20:15.132Z,6.90
2019-04-29T17:22:44.757Z,6.37
2019-04-29T17:25:16.026Z,6.10
2019-04-29T17:27:57.883Z,5.80
2019-04-29T17:30:46.407Z,5.90
2019-04-29T17:33:11.721Z,5.93
2019-04-29T17:35:46.903Z,5.33
2019-04-29T17:38:10.635Z,5.37
2019-04-29T17:40:50.613Z,5.83
2019-04-29T17:43:30.175Z,5.53
2019-04-29T17:46:08.726Z,5.20
2019-04-29T17:48:48.629Z,4.80
2019-04-29T17:51:14.835Z,5.07
2019-04-29T17:53:46.022Z,4.90
2019-04-29T17:56:35.088Z,5.03
2019-04-29T17:59:29.441Z,4.83
2019-04-29T18:02:20.787Z,5.20
2019-04-29T18:05:01.164Z,4.67
2019-04-29T18:07:45.485Z,4.37
2019-04-29T18:10:24.217Z,5.03
2019-04-29T18:12:48.404Z,4.67
2019-04-29T18:15:20.230Z,4.90
2019-04-29T18:17:48.832Z,4.83
2019-04-29T18:20:35.743Z,4.97
2019-04-29T18:23:15.902Z,4.57
2019-04-29T18:25:49.092Z,5.07
2019-04-29T18:28:17.511Z,4.63
2019-04-29T18:30:49.732Z,4.80
2019-04-29T18:33:18.999Z,4.43
2019-04-29T18:35:46.697Z,5.10
2019-04-29T18:38:15.157Z,4.70
2019-04-29T18:40:44.813Z,4.80
2019-04-29T18:43:14.999Z,4.53
2019-04-29T18:45:55.159Z,4.77
2019-04-29T18:48:16.953Z,4.87
2019-04-29T18:50:43.751Z,5.43
2019-04-29T18:53:12.203Z,4.93
2019-04-29T18:55:40.595Z,4.97
2019-04-29T18:58:08.997Z,4.47
2019-04-29T19:00:37.384Z,4.73
2019-04-29T19:03:06.591Z,4.53
2019-04-29T19:05:45.856Z,4.47
2019-04-29T19:08:19.170Z,4.47
2019-04-29T19:10:45.992Z,4.03
2019-04-29T19:13:16.673Z,4.13
2019-04-29T19:15:48.188Z,4.30
2019-04-29T19:18:17.533Z,4.67
2019-04-29T19:20:46.073Z,4.00
2019-04-29T19:23:16.195Z,4.50
2019-04-29T19:25:46.457Z,4.50
2019-04-29T19:28:24.938Z,4.37
2019-04-29T19:30:45.471Z,4.90
2019-04-29T19:33:15.133Z,4.50
2019-04-29T19:35:45.186Z,5.00
2019-04-29T19:38:15.628Z,5.23
2019-04-29T19:40:43.787Z,5.23
2019-04-29T19:43:15.378Z,6.00
2019-04-29T19:45:44.749Z,6.20
2019-04-29T19:48:12.406Z,6.30
2019-04-29T19:50:40.800Z,6.30
2019-04-29T19:53:09.184Z,6.47
2019-04-29T19:55:41.793Z,6.53
2019-04-29T19:58:11.973Z,7.03
2019-04-29T20:00:38.988Z,7.80
2019-04-29T20:03:20.559Z,6.63
2019-04-29T20:05:41.326Z,7.03
2019-04-29T20:08:18.505Z,7.57
2019-04-29T20:10:46.237Z,7.47
2019-04-29T20:13:10.500Z,7.20
2019-04-29T20:15:45.870Z,7.83
2019-04-29T20:18:39.428Z,7.50
2019-04-29T20:21:08.875Z,8.00
2019-04-29T20:23:39.036Z,8.30
2019-04-29T20:26:15.428Z,8.60
2019-04-29T20:28:36.363Z,8.03
2019-04-29T20:31:16.370Z,8.27
2019-04-29T20:33:35.590Z,8.93
2019-04-29T20:36:06.180Z,9.37
2019-04-29T20:38:38.511Z,9.03
2019-04-29T20:41:07.919Z,9.63
2019-04-29T20:43:35.842Z,9.00
2019-04-29T20:46:04.876Z,10.20
2019-04-29T20:48:36.810Z,10.03
2019-04-29T20:51:11.688Z,9.67
2019-04-29T20:53:38.848Z,10.13
2019-04-29T20:56:11.884Z,10.47
2019-04-29T20:58:36.175Z,10.90
2019-04-29T21:01:10.771Z,11.17
2019-04-29T21:03:36.726Z,11.53
2019-04-29T21:06:06.737Z,11.80
2019-04-29T21:08:35.140Z,11.87
2019-04-29T21:11:05.752Z,11.30
2019-04-29T21:13:48.851Z,12.77
2019-04-29T21:16:26.554Z,11.67
2019-04-29T21:18:56.707Z,13.47
2019-04-29T21:21:25.601Z,13.27
2019-04-29T21:23:55.310Z,13.27
2019-04-29T21:26:26.088Z,14.07
2019-04-29T21:28:55.577Z,14.23
2019-04-29T21:31:25.508Z,15.47
2019-04-29T21:33:55.395Z,14.97
2019-04-29T21:36:37.704Z,16.10
2019-04-29T21:39:26.487Z,16.23
2019-04-29T21:42:15.771Z,16.17
2019-04-29T21:44:44.358Z,16.63
2019-04-29T21:47:12.740Z,16.50
2019-04-29T21:49:45.244Z,16.67
2019-04-29T21:52:11.235Z,17.13
2019-04-29T21:54:39.615Z,15.93
2019-04-29T21:57:08.004Z,15.90
2019-04-29T21:59:36.412Z,16.17
2019-04-29T22:02:06.706Z,15.20
2019-04-29T22:04:37.432Z,14.93
2019-04-29T22:07:07.948Z,14.33
2019-04-29T22:09:40.539Z,15.50
2019-04-29T22:12:06.743Z,14.50
2019-04-29T22:14:35.152Z,14.27
2019-04-29T22:17:05.144Z,15.13
2019-04-29T22:19:35.127Z,13.87
2019-04-29T22:22:05.704Z,15.27
2019-04-29T22:24:35.694Z,14.67
2019-04-29T22:27:07.636Z,14.73
2019-04-29T22:29:37.456Z,13.93
2019-04-29T22:32:07.833Z,14.97
2019-04-29T22:34:35.497Z,13.07
2019-04-29T22:37:05.531Z,14.17
2019-04-29T22:39:35.715Z,14.47
2019-04-29T22:42:06.040Z,14.00
2019-04-29T22:44:36.042Z,13.63
2019-04-29T22:47:05.808Z,14.10
2019-04-29T22:49:34.942Z,14.57
2019-04-29T22:52:03.391Z,15.23
2019-04-29T22:54:31.784Z,14.23
2019-04-29T22:57:00.176Z,14.23
2019-04-29T22:59:28.561Z,13.80
2019-04-29T23:01:56.963Z,14.20
2019-04-29T23:04:25.359Z,13.60
2019-04-29T23:06:53.744Z,13.47
2019-04-29T23:09:22.139Z,13.67
2019-04-29T23:11:50.532Z,12.27
2019-04-29T23:14:18.923Z,12.17
2019-04-29T23:17:12.089Z,12.20
2019-04-29T23:19:36.852Z,12.40
2019-04-29T23:22:16.978Z,11.73
2019-04-29T23:24:55.761Z,11.63
2019-04-29T23:27:25.855Z,11.40
2019-04-29T23:29:54.491Z,11.93
2019-04-29T23:32:22.871Z,10.97
2019-04-29T23:34:51.298Z,10.73
2019-04-29T23:37:23.963Z,10.07
2019-04-29T23:39:49.795Z,10.33
2019-04-29T23:42:18.271Z,11.03
2019-04-29T23:44:46.657Z,11.07
2019-04-29T23:47:17.385Z,10.90
2019-04-29T23:49:46.779Z,11.47
2019-04-29T23:52:16.037Z,11.23
2019-04-29T23:54:48.419Z,10.57
2019-04-29T23:57:24.791Z,10.73
